Time;durP1;ratioP1;P1;durP2;ratioP2;P2;SDS_P1;SDS_P2;PMS_P1;PMS_P2;Temp;Humidity;BMP_temperature;BMP_pressure;BME280_temperature;BME280_humidity;BME280_pressure;Samples;Min_cycle;Max_cycle;Signal;HPM_P1;HPM_P2
2022/11/21 00:00:35;;;;;;;14.27;10.93;;;;;;;14.39;100.00;98261.09;5049893;28;20209;-56
2022/11/21 00:03:02;;;;;;;13.60;10.77;;;;;;;14.38;100.00;98255.94;5045429;28;20692;-56
2022/11/21 00:05:30;;;;;;;14.13;10.13;;;;;;;14.33;100.00;98257.75;5049954;28;20192;-57
2022/11/21 00:07:57;;;;;;;17.37;11.13;;;;;;;14.31;100.00;98275.81;5049980;28;20192;-56
2022/11/21 00:10:26;;;;;;;14.13;11.35;;;;;;;14.25;100.00;98259.59;5049655;28;20478;-57
2022/11/21 00:12:54;;;;;;;15.97;10.43;;;;;;;14.23;100.00;98227.78;5049886;28;20191;-57
2022/11/21 00:15:22;;;;;;;13.33;9.90;;;;;;;14.17;100.00;98205.50;5050098;28;20274;-57
2022/11/21 00:17:50;;;;;;;14.53;9.60;;;;;;;14.15;100.00;98191.75;5049856;28;20203;-58
2022/11/21 00:20:18;;;;;;;15.30;10.43;;;;;;;14.08;100.00;98172.09;5050207;28;20185;-57
2022/11/21 00:22:45;;;;;;;17.83;11.43;;;;;;;14.00;100.00;98173.97;5050782;28;20210;-56
2022/11/21 00:25:12;;;;;;;13.60;11.03;;;;;;;13.97;100.00;98172.28;5051104;28;20184;-56
2022/11/21 00:27:39;;;;;;;15.17;10.97;;;;;;;14.03;100.00;98163.59;5051191;28;20250;-57
2022/11/21 00:30:07;;;;;;;14.00;10.80;;;;;;;14.12;100.00;98171.13;5054885;28;20198;-56
2022/11/21 00:32:34;;;;;;;16.33;10.13;;;;;;;13.89;100.00;98125.13;5054783;28;20291;-56
2022/11/21 00:35:02;;;;;;;17.97;10.37;;;;;;;14.19;100.00;98175.31;5054444;28;20200;-56
2022/11/21 00:37:29;;;;;;;17.83;11.43;;;;;;;14.19;100.00;98165.00;5054784;28;20192;-56
2022/11/21 00:39:56;;;;;;;16.67;11.57;;;;;;;14.19;100.00;98152.94;5054474;28;20192;-56
2022/11/21 00:42:23;;;;;;;19.60;11.80;;;;;;;14.19;100.00;98142.59;5054547;28;20576;-55
2022/11/21 00:44:50;;;;;;;16.27;11.20;;;;;;;14.19;100.00;98136.56;5046136;28;20262;-57
2022/11/21 00:47:17;;;;;;;15.00;11.50;;;;;;;14.20;100.00;98135.72;5047586;28;20202;-56
2022/11/21 00:49:44;;;;;;;15.50;11.20;;;;;;;14.19;100.00;98142.59;5046271;28;20244;-56
2022/11/21 00:52:12;;;;;;;16.07;10.57;;;;;;;14.17;100.00;98146.09;5045863;28;20582;-56
2022/11/21 00:54:40;;;;;;;18.53;12.10;;;;;;;14.05;100.00;98112.75;5051538;28;20189;-56
2022/11/21 00:57:07;;;;;;;13.73;10.83;;;;;;;14.06;100.00;98135.13;5053883;28;20234;-55
2022/11/21 00:59:33;;;;;;;19.55;12.77;;;;;;;14.10;100.00;98178.06;5049728;28;20833;-56
2022/11/21 01:02:00;;;;;;;14.60;11.37;;;;;;;14.11;100.00;98209.06;5052388;28;20704;-55
2022/11/21 01:04:32;;;;;;;16.97;10.70;;;;;;;14.07;100.00;98237.53;5049248;28;20207;-57
2022/11/21 01:06:59;;;;;;;19.13;10.93;;;;;;;14.06;100.00;98248.75;5052489;28;20190;-55
2022/11/21 01:09:27;;;;;;;14.57;10.67;;;;;;;14.09;100.00;98274.53;5053693;28;20190;-56
2022/11/21 01:11:55;;;;;;;17.60;11.00;;;;;;;14.10;100.00;98271.91;5048820;28;20657;-56
2022/11/21 01:14:22;;;;;;;11.17;10.00;;;;;;;14.08;100.00;98262.47;5051245;28;20655;-56
2022/11/21 01:16:49;;;;;;;14.10;10.53;;;;;;;14.07;100.00;98281.44;5053349;28;20242;-57
2022/11/21 01:19:16;;;;;;;12.17;10.87;;;;;;;14.07;100.00;98281.44;5053884;28;20193;-56
2022/11/21 01:21:43;;;;;;;17.00;11.60;;;;;;;14.07;100.00;98281.44;5053440;28;20188;-56
2022/11/21 01:24:11;;;;;;;12.67;10.53;;;;;;;13.92;100.00;98274.81;5053443;28;20742;-57
2022/11/21 01:26:40;;;;;;;15.67;10.90;;;;;;;14.06;100.00;98339.97;5053610;28;20238;-60
2022/11/21 01:29:20;;;;;;;15.33;11.53;;;;;;;14.05;100.00;98325.38;5053124;28;20197;-56
2022/11/21 01:31:48;;;;;;;17.97;13.40;;;;;;;14.08;100.00;98280.56;5046690;28;20203;-56
2022/11/21 01:34:16;;;;;;;15.23;12.13;;;;;;;14.12;100.00;98192.66;5052458;28;20249;-57
2022/11/21 01:36:44;;;;;;;19.97;11.93;;;;;;;14.03;100.00;98133.44;5052252;28;20614;-54
2022/11/21 01:39:12;;;;;;;19.73;12.60;;;;;;;14.00;100.00;98161.06;5050468;28;20188;-57
2022/11/21 01:41:42;;;;;;;18.83;12.10;;;;;;;14.04;100.00;98168.69;5050735;28;20190;-55
2022/11/21 01:44:16;;;;;;;16.80;11.07;;;;;;;14.00;100.00;98176.53;5051064;28;20195;-56
2022/11/21 01:46:43;;;;;;;15.47;10.93;;;;;;;13.97;100.00;98153.38;5051458;28;20528;-56
2022/11/21 01:49:13;;;;;;;13.70;10.83;;;;;;;13.98;100.00;98173.16;5053042;28;20194;-54
2022/11/21 01:51:44;;;;;;;12.53;9.70;;;;;;;13.98;100.00;98155.06;5050884;28;20181;-56
2022/11/21 01:54:16;;;;;;;17.40;10.53;;;;;;;14.06;100.00;98173.84;5052780;28;20675;-55
2022/11/21 01:56:49;;;;;;;18.83;11.43;;;;;;;14.08;100.00;98185.84;5051231;28;20551;-55
2022/11/21 01:59:23;;;;;;;13.37;9.97;;;;;;;14.12;100.00;98200.41;5052621;28;20185;-56
2022/11/21 02:01:53;;;;;;;12.37;10.00;;;;;;;14.17;100.00;98216.66;5052609;28;20601;-57
2022/11/21 02:04:24;;;;;;;16.70;10.23;;;;;;;14.12;100.00;98202.13;5050296;28;20659;-56
2022/11/21 02:06:51;;;;;;;10.60;9.47;;;;;;;14.17;100.00;98202.91;5052732;28;20234;-57
2022/11/21 02:09:19;;;;;;;15.43;9.47;;;;;;;14.17;100.00;98195.16;5049132;28;20188;-54
2022/11/21 02:11:51;;;;;;;15.57;9.37;;;;;;;14.04;100.00;98196.25;5051636;28;20192;-55
2022/11/21 02:14:18;;;;;;;13.13;8.87;;;;;;;14.06;100.00;98203.09;5052986;28;20268;-56
2022/11/21 02:16:46;;;;;;;13.13;9.13;;;;;;;14.02;100.00;98192.84;5052431;28;20548;-55
2022/11/21 02:19:23;;;;;;;13.87;9.47;;;;;;;13.96;100.00;98173.16;5052614;28;20271;-56
2022/11/21 02:21:55;;;;;;;15.30;8.47;;;;;;;13.97;100.00;98171.44;5053162;28;20181;-56
2022/11/21 02:24:28;;;;;;;14.50;10.27;;;;;;;13.98;100.00;98161.06;5052021;28;20442;-56
2022/11/21 02:26:57;;;;;;;10.30;8.47;;;;;;;13.98;100.00;98145.56;5062655;28;20193;-56
2022/11/21 02:29:23;;;;;;;10.47;8.27;;;;;;;13.87;100.00;98157.00;5063057;28;20207;-56
2022/11/21 02:31:51;;;;;;;12.20;9.77;;;;;;;13.91;100.00;98174.13;5053060;28;20189;-56
2022/11/21 02:34:18;;;;;;;14.50;9.07;;;;;;;13.91;100.00;98136.25;5052715;28;20194;-56
2022/11/21 02:36:46;;;;;;;12.65;9.85;;;;;;;13.93;100.00;98160.31;5052459;28;20450;-56
2022/11/21 02:39:19;;;;;;;12.68;8.60;;;;;;;13.84;100.00;98139.00;5052398;28;20861;-54
2022/11/21 02:41:56;;;;;;;9.63;8.63;;;;;;;13.89;100.00;98137.16;5050083;28;20191;-54
2022/11/21 02:44:30;;;;;;;11.63;7.80;;;;;;;13.85;100.00;98140.66;5050697;28;20257;-54
2022/11/21 02:46:56;;;;;;;15.23;9.33;;;;;;;13.81;100.00;98141.63;5050521;28;20664;-56
2022/11/21 02:49:31;;;;;;;9.20;8.17;;;;;;;13.66;100.00;98113.50;5052117;28;20192;-56
2022/11/21 02:51:58;;;;;;;11.50;8.80;;;;;;;13.75;100.00;98121.94;5052340;28;20182;-57
2022/11/21 02:54:25;;;;;;;10.17;7.90;;;;;;;13.77;100.00;98132.22;5035901;28;20196;-56
2022/11/21 02:56:52;;;;;;;11.50;8.47;;;;;;;13.81;100.00;98133.88;5035879;28;20188;-56
2022/11/21 02:59:18;;;;;;;11.73;8.23;;;;;;;13.79;100.00;98115.81;5043443;28;20197;-56
2022/11/21 03:01:58;;;;;;;11.10;7.77;;;;;;;13.75;100.00;98121.94;5034982;28;20189;-57
2022/11/21 03:04:25;;;;;;;9.47;8.33;;;;;;;13.78;100.00;98127.03;5036770;28;20249;-56
2022/11/21 03:06:52;;;;;;;10.90;9.03;;;;;;;13.79;100.00;98136.47;5044617;28;20667;-56
2022/11/21 03:09:19;;;;;;;12.48;10.32;;;;;;;13.80;100.00;98133.03;5047141;28;20453;-57
2022/11/21 03:11:46;;;;;;;17.67;12.13;;;;;;;13.76;100.00;98149.44;5072490;28;20192;-56
2022/11/21 03:14:13;;;;;;;18.97;13.10;;;;;;;13.66;100.00;98131.56;5072193;28;20198;-56
2022/11/21 03:16:39;;;;;;;17.70;12.90;;;;;;;13.75;100.00;98119.34;5050982;28;20199;-56
2022/11/21 03:19:07;;;;;;;15.40;10.00;;;;;;;13.76;100.00;98146.03;5034830;28;20203;-56
2022/11/21 03:21:34;;;;;;;16.63;11.60;;;;;;;13.82;100.00;98135.56;5044235;28;20505;-57
2022/11/21 03:24:01;;;;;;;15.53;10.63;;;;;;;13.89;100.00;98125.13;5049076;28;20633;-56
2022/11/21 03:26:28;;;;;;;18.43;11.63;;;;;;;13.84;100.00;98128.66;5051946;28;20208;-56
2022/11/21 03:28:55;;;;;;;18.47;11.43;;;;;;;13.82;100.00;98099.41;5052066;28;20206;-56
2022/11/21 03:31:22;;;;;;;15.90;11.87;;;;;;;13.73;100.00;98109.94;5063081;28;20947;-56
2022/11/21 03:33:48;;;;;;;16.50;11.80;;;;;;;13.68;100.00;98128.06;5072904;28;20269;-56
2022/11/21 03:36:16;;;;;;;18.10;12.93;;;;;;;13.63;100.00;98110.97;5072524;28;20199;-56
2022/11/21 03:38:43;;;;;;;16.70;13.60;;;;;;;13.66;100.00;98109.19;5072271;28;20192;-56
2022/11/21 03:43:51;;;;;;;15.37;12.90;;;;;;;13.52;100.00;98080.19;5071639;28;20273;-56
2022/11/21 03:46:17;;;;;;;17.00;12.97;;;;;;;13.44;100.00;98093.25;5072034;28;20241;-56
2022/11/21 03:48:44;;;;;;;20.33;14.77;;;;;;;13.45;100.00;98091.53;5071790;28;20187;-56
2022/11/21 03:51:11;;;;;;;20.50;14.73;;;;;;;13.47;100.00;98084.59;5071745;28;20197;-56
2022/11/21 03:53:39;;;;;;;18.50;13.70;;;;;;;13.41;100.00;98071.78;5071950;28;20196;-56
2022/11/21 03:56:06;;;;;;;17.20;13.13;;;;;;;13.31;100.00;98070.28;5071817;28;20200;-56
2022/11/21 03:58:33;;;;;;;20.02;15.35;;;;;;;13.31;100.00;98075.44;5071264;28;20445;-56
2022/11/21 04:00:59;;;;;;;17.07;13.67;;;;;;;13.32;100.00;98064.25;5071845;28;20192;-56
2022/11/21 04:03:26;;;;;;;18.73;13.73;;;;;;;13.34;100.00;98071.06;5073374;28;20280;-56
2022/11/21 04:05:53;;;;;;;18.27;14.33;;;;;;;13.37;100.00;98080.47;5075492;28;20193;-56
2022/11/21 04:08:20;;;;;;;17.97;13.33;;;;;;;13.33;100.00;98091.72;5075477;28;20200;-56
2022/11/21 04:10:49;;;;;;;20.08;15.57;;;;;;;13.38;100.00;98072.72;5074307;28;20437;-57
2022/11/21 04:13:16;;;;;;;17.67;13.70;;;;;;;13.41;100.00;98087.28;5075462;28;20192;-56
2022/11/21 04:15:43;;;;;;;17.23;13.90;;;;;;;13.31;100.00;98111.53;5076021;28;20215;-56
2022/11/21 04:18:10;;;;;;;20.03;14.20;;;;;;;13.27;100.00;98123.63;5075173;28;20188;-56
2022/11/21 04:20:37;;;;;;;17.67;14.63;;;;;;;13.27;100.00;98121.03;5075297;28;20241;-56
2022/11/21 04:23:04;;;;;;;17.63;13.57;;;;;;;13.31;100.00;98114.13;5075072;28;20211;-56
2022/11/21 04:25:31;;;;;;;20.17;14.17;;;;;;;13.40;100.00;98099.34;5075047;28;20194;-56
2022/11/21 04:28:00;;;;;;;20.27;14.63;;;;;;;13.25;100.00;98080.69;5074981;28;20188;-56
2022/11/21 04:30:28;;;;;;;19.13;15.77;;;;;;;13.05;100.00;98073.25;5075126;28;20188;-56
2022/11/21 04:32:56;;;;;;;17.70;14.50;;;;;;;13.15;100.00;98094.63;5075205;28;20609;-56
2022/11/21 04:35:24;;;;;;;17.80;15.30;;;;;;;13.18;100.00;98082.53;5075035;28;20245;-56
2022/11/21 04:37:51;;;;;;;23.27;16.47;;;;;;;13.21;100.00;98094.53;5074997;28;20187;-56
2022/11/21 04:40:18;;;;;;;21.63;15.77;;;;;;;13.23;100.00;98100.50;5074916;28;20188;-56
2022/11/21 04:42:47;;;;;;;21.10;16.37;;;;;;;13.25;100.00;98094.44;5074517;28;20199;-56
2022/11/21 04:45:16;;;;;;;19.80;17.00;;;;;;;13.16;100.00;98076.53;5074578;28;20935;-56
2022/11/21 04:47:45;;;;;;;19.33;15.23;;;;;;;13.17;100.00;98078.25;5074591;28;20608;-56
2022/11/21 04:50:13;;;;;;;25.43;15.70;;;;;;;13.17;100.00;98073.09;5074689;28;20187;-56
2022/11/21 04:52:41;;;;;;;20.43;15.20;;;;;;;13.02;100.00;98083.59;5074545;28;20646;-56
2022/11/21 04:55:09;;;;;;;20.63;15.07;;;;;;;12.95;100.00;98108.66;5054142;28;20330;-56
2022/11/21 04:57:36;;;;;;;28.02;17.38;;;;;;;13.00;100.00;98106.00;5055024;28;20517;-56
2022/11/21 05:00:03;;;;;;;20.07;16.00;;;;;;;12.88;100.00;98093.31;5054560;28;20246;-56
2022/11/21 05:02:32;;;;;;;23.13;16.57;;;;;;;12.89;100.00;98107.88;5054321;28;20197;-56
2022/11/21 05:04:59;;;;;;;17.87;15.27;;;;;;;12.94;100.00;98080.31;5054295;28;20220;-56
2022/11/21 05:07:26;;;;;;;23.97;14.60;;;;;;;12.87;100.00;98066.69;5054354;28;20650;-56
2022/11/21 05:09:53;;;;;;;21.20;15.70;;;;;;;12.87;100.00;98083.88;5054148;28;20192;-56
2022/11/21 05:15:05;;;;;;;22.80;16.73;;;;;;;12.90;100.00;98074.38;5054141;28;20250;-56
2022/11/21 05:17:33;;;;;;;22.63;17.33;;;;;;;12.94;100.00;98090.63;5054178;28;20242;-55
2022/11/21 05:20:00;;;;;;;24.63;18.20;;;;;;;12.81;100.00;98102.00;5054004;28;20196;-56
2022/11/21 05:22:27;;;;;;;21.10;18.40;;;;;;;12.87;100.00;98102.75;5054762;28;20257;-55
2022/11/21 05:24:54;;;;;;;33.27;19.97;;;;;;;12.78;100.00;98102.88;5053936;28;20614;-55
2022/11/21 05:27:21;;;;;;;25.10;19.93;;;;;;;12.88;100.00;98107.03;5054632;28;20599;-55
2022/11/21 05:29:47;;;;;;;29.90;21.63;;;;;;;12.83;100.00;98067.59;5054021;28;20221;-55
2022/11/21 05:32:14;;;;;;;23.67;15.03;;;;;;;12.77;100.00;98052.22;5053958;28;20232;-55
2022/11/21 05:34:42;;;;;;;21.42;17.85;;;;;;;12.83;100.00;98049.53;5053239;28;20439;-56
2022/11/21 05:37:09;;;;;;;14.33;9.93;;;;;;;12.92;100.00;98056.28;5053998;28;20265;-56
2022/11/21 05:39:36;;;;;;;21.20;15.73;;;;;;;13.08;100.00;98078.38;5053810;28;20731;-56
2022/11/21 05:42:03;;;;;;;19.00;14.87;;;;;;;13.13;100.00;98097.22;5054624;28;20605;-56
2022/11/21 05:44:29;;;;;;;19.50;12.63;;;;;;;13.15;100.00;98095.47;5052949;28;20225;-55
2022/11/21 05:46:55;;;;;;;24.07;16.93;;;;;;;13.18;100.00;98098.00;5052826;28;20590;-56
2022/11/21 05:49:22;;;;;;;19.03;14.90;;;;;;;13.09;100.00;98085.25;5053181;28;20190;-56
2022/11/21 05:51:50;;;;;;;24.03;18.33;;;;;;;13.20;100.00;98105.72;5052778;28;20222;-56
2022/11/21 05:54:17;;;;;;;25.37;17.83;;;;;;;13.08;100.00;98099.00;5067628;28;20580;-55
2022/11/21 05:56:44;;;;;;;23.60;17.80;;;;;;;13.14;100.00;98098.91;5071819;28;20231;-55
2022/11/21 05:59:11;;;;;;;24.47;17.00;;;;;;;13.05;100.00;98087.88;5063504;28;20685;-56
2022/11/21 06:04:23;;;;;;;31.53;19.93;;;;;;;13.27;100.00;98126.22;5051572;28;20226;-55
2022/11/21 06:06:51;;;;;;;27.77;18.50;;;;;;;13.29;100.00;98145.09;5052965;28;20255;-56
2022/11/21 06:09:18;;;;;;;30.13;19.53;;;;;;;13.22;100.00;98140.91;5052545;28;20215;-56
2022/11/21 06:11:44;;;;;;;29.83;21.23;;;;;;;13.17;100.00;98142.72;5052302;28;20241;-55
2022/11/21 06:14:11;;;;;;;28.87;19.27;;;;;;;13.16;100.00;98125.53;5052049;28;20194;-56
2022/11/21 06:16:38;;;;;;;32.30;21.17;;;;;;;13.25;100.00;98135.69;5072963;28;20184;-55
2022/11/21 06:19:05;;;;;;;23.93;21.23;;;;;;;13.30;100.00;98121.00;5071008;28;20203;-55
2022/11/21 06:21:33;;;;;;;27.53;21.07;;;;;;;13.38;100.00;98124.31;5058880;28;20575;-56
2022/11/21 06:24:01;;;;;;;29.00;23.25;;;;;;;13.55;100.00;98116.28;5045905;28;20900;-55
2022/11/21 06:26:28;;;;;;;23.53;19.77;;;;;;;13.68;100.00;98111.75;5047051;28;20685;-55
2022/11/21 06:28:55;;;;;;;26.30;20.40;;;;;;;13.67;100.00;98123.81;5051638;28;20196;-56
2022/11/21 06:31:24;;;;;;;26.20;21.47;;;;;;;13.55;100.00;98130.03;5052171;28;20655;-55
2022/11/21 06:33:52;;;;;;;26.00;20.47;;;;;;;13.38;100.00;98121.72;5055016;28;20307;-55
2022/11/21 06:36:19;;;;;;;27.70;21.10;;;;;;;13.32;100.00;98110.66;5070112;28;20192;-55
2022/11/21 06:38:46;;;;;;;31.30;20.67;;;;;;;13.25;100.00;98107.34;5072455;28;20588;-55
2022/11/21 06:41:16;;;;;;;35.83;20.83;;;;;;;13.01;100.00;98092.25;5072382;28;20677;-55
2022/11/21 06:43:44;;;;;;;27.77;19.57;;;;;;;13.16;100.00;98119.53;5060458;28;20224;-56
2022/11/21 06:46:11;;;;;;;23.30;17.77;;;;;;;13.16;100.00;98122.13;5052306;28;20225;-55
2022/11/21 06:48:38;;;;;;;23.00;17.00;;;;;;;13.28;100.00;98127.06;5051659;28;20185;-56
2022/11/21 06:51:06;;;;;;;23.73;18.33;;;;;;;13.46;100.00;98153.41;5051892;28;20192;-56
2022/11/21 06:53:33;;;;;;;22.70;18.83;;;;;;;13.50;100.00;98147.31;5052189;28;20192;-55
2022/11/21 06:56:00;;;;;;;22.33;17.47;;;;;;;13.50;100.00;98142.16;5052238;28;20196;-56
2022/11/21 06:58:29;;;;;;;18.47;14.83;;;;;;;13.57;100.00;98145.47;5050168;28;20192;-56
2022/11/21 07:00:56;;;;;;;21.63;15.47;;;;;;;13.68;100.00;98159.03;5050619;28;20272;-55
2022/11/21 07:03:23;;;;;;;22.13;14.73;;;;;;;13.72;100.00;98149.53;5051385;28;20184;-56
2022/11/21 07:05:51;;;;;;;20.70;15.47;;;;;;;13.78;100.00;98139.94;5051450;28;20184;-56
2022/11/21 07:08:18;;;;;;;18.87;12.97;;;;;;;13.75;100.00;98128.81;5049662;28;20192;-56
2022/11/21 07:10:44;;;;;;;25.07;15.37;;;;;;;14.00;100.00;98143.84;5047674;28;20431;-56
2022/11/21 07:13:23;;;;;;;20.37;14.00;;;;;;;13.89;100.00;98091.56;5051019;28;20945;-55
2022/11/21 07:15:53;;;;;;;20.80;13.47;;;;;;;14.35;100.00;98147.47;5049938;28;20213;-55
2022/11/21 07:18:21;;;;;;;22.07;15.13;;;;;;;14.47;100.00;98150.69;5051761;28;20286;-55
2022/11/21 07:20:48;;;;;;;22.03;14.33;;;;;;;14.61;100.00;98140.88;5051421;28;20187;-56
2022/11/21 07:23:16;;;;;;;20.80;13.80;;;;;;;14.57;99.97;98120.31;5051612;28;20211;-55
2022/11/21 07:25:43;;;;;;;23.70;13.00;;;;;;;14.62;97.49;98146.91;5051550;28;20278;-55
2022/11/21 07:28:10;;;;;;;17.33;13.60;;;;;;;14.65;96.45;98152.84;5051567;28;20192;-55
2022/11/21 07:30:37;;;;;;;20.23;14.20;;;;;;;14.69;96.76;98161.41;5051266;28;20314;-55
2022/11/21 07:33:08;;;;;;;18.53;13.73;;;;;;;14.69;97.02;98161.41;5051097;28;20772;-55
2022/11/21 07:35:35;;;;;;;18.00;12.70;;;;;;;14.72;96.76;98167.34;5051368;28;20660;-56
2022/11/21 07:38:03;;;;;;;22.33;14.53;;;;;;;14.72;97.14;98164.75;5052590;28;20196;-56
2022/11/21 07:40:32;;;;;;;18.17;12.37;;;;;;;14.81;97.11;98175.78;5055486;28;20188;-56
2022/11/21 07:43:01;;;;;;;21.87;14.10;;;;;;;14.73;97.35;98147.50;5066349;28;20190;-56
2022/11/21 07:45:28;;;;;;;20.87;13.37;;;;;;;14.83;96.23;98179.22;5058313;28;20601;-56
2022/11/21 07:47:58;;;;;;;18.43;12.40;;;;;;;14.84;96.75;98181.75;5075532;28;20191;-55
2022/11/21 07:50:27;;;;;;;18.47;13.87;;;;;;;14.88;97.07;98177.38;5075116;28;20253;-57
2022/11/21 07:52:57;;;;;;;20.93;13.40;;;;;;;14.97;97.96;98172.00;5075127;28;20256;-56
2022/11/21 07:55:24;;;;;;;13.70;12.30;;;;;;;14.94;98.00;98151.38;5048899;28;20297;-56
2022/11/21 07:57:58;;;;;;;21.30;15.10;;;;;;;15.04;98.32;98173.53;5040955;28;20200;-56
2022/11/21 08:00:25;;;;;;;22.37;15.17;;;;;;;15.02;96.89;98178.78;5047664;28;20196;-56
2022/11/21 08:02:51;;;;;;;17.67;14.77;;;;;;;15.12;95.65;98176.81;5044967;28;20197;-56
2022/11/21 08:05:18;;;;;;;20.33;14.27;;;;;;;15.18;94.86;98174.94;5040429;28;20226;-56
2022/11/21 08:07:46;;;;;;;24.33;14.67;;;;;;;15.22;95.28;98175.69;5047280;28;20194;-56
2022/11/21 08:10:14;;;;;;;23.07;15.63;;;;;;;15.35;93.61;98190.06;5044249;28;20203;-56
2022/11/21 08:12:40;;;;;;;20.10;14.97;;;;;;;15.43;93.46;98187.28;5040767;28;20207;-56
2022/11/21 08:15:08;;;;;;;18.27;13.97;;;;;;;15.46;91.87;98193.28;5048390;28;20202;-56
2022/11/21 08:17:35;;;;;;;25.47;17.07;;;;;;;15.41;91.00;98202.84;5042543;28;20661;-56
2022/11/21 08:20:03;;;;;;;34.23;17.43;;;;;;;15.46;91.43;98208.81;5041811;28;20196;-56
2022/11/21 08:22:29;;;;;;;30.13;18.00;;;;;;;15.58;91.27;98215.41;5060378;28;20653;-56
2022/11/21 08:24:58;;;;;;;22.00;17.20;;;;;;;15.66;91.76;98203.13;5074109;28;20223;-56
2022/11/21 08:27:24;;;;;;;19.67;14.83;;;;;;;15.79;91.71;98200.19;5074074;28;20186;-56
2022/11/21 08:29:51;;;;;;;23.43;14.53;;;;;;;15.89;91.02;98193.06;5073949;28;20188;-56
2022/11/21 08:32:18;;;;;;;22.37;13.23;;;;;;;16.00;89.62;98193.63;5066339;28;20705;-56
2022/11/21 08:34:45;;;;;;;17.40;13.13;;;;;;;16.15;89.41;98194.97;5053437;28;20574;-56
2022/11/21 08:37:11;;;;;;;18.90;13.70;;;;;;;16.32;88.96;98198.78;5053473;28;20196;-55
2022/11/21 08:39:38;;;;;;;20.97;12.67;;;;;;;16.48;87.69;98191.47;5053391;28;20188;-55
2022/11/21 08:42:06;;;;;;;16.27;10.17;;;;;;;16.68;87.82;98198.66;5053473;28;20576;-56
2022/11/21 08:44:34;;;;;;;15.03;8.23;;;;;;;16.85;86.31;98207.69;5067929;28;20221;-56
2022/11/21 08:47:02;;;;;;;11.83;7.60;;;;;;;16.98;80.75;98198.63;5053746;28;20196;-56
2022/11/21 08:49:29;;;;;;;12.00;7.13;;;;;;;17.09;76.13;98193.97;5053328;28;20267;-56
2022/11/21 08:51:56;;;;;;;16.63;7.43;;;;;;;17.27;75.13;98207.28;5053855;28;20199;-56
2022/11/21 08:54:24;;;;;;;10.80;7.13;;;;;;;17.45;74.90;98198.91;5053445;28;20720;-56
2022/11/21 08:56:51;;;;;;;8.03;5.27;;;;;;;17.59;73.59;98202.78;5053103;28;20196;-55
2022/11/21 08:59:19;;;;;;;16.53;6.93;;;;;;;17.78;73.58;98203.03;5053483;28;20223;-56
2022/11/21 09:01:46;;;;;;;10.30;7.03;;;;;;;17.93;73.28;98191.28;5053161;28;20658;-56
2022/11/21 09:04:13;;;;;;;12.90;6.93;;;;;;;18.04;71.75;98187.41;5052939;28;20220;-56
2022/11/21 09:06:40;;;;;;;13.57;8.43;;;;;;;18.10;71.73;98189.78;5053285;28;20674;-56
2022/11/21 09:09:07;;;;;;;12.13;6.07;;;;;;;18.10;71.01;98181.16;5053769;28;20215;-55
2022/11/21 09:11:35;;;;;;;7.57;4.50;;;;;;;18.21;67.31;98185.06;5053662;28;20245;-56
2022/11/21 09:19:32;;;;;;;5.03;2.67;;;;;;;18.36;55.07;98177.63;5053647;28;20199;-56
2022/11/21 09:21:59;;;;;;;4.13;1.97;;;;;;;18.22;55.96;98175.50;5053571;28;20246;-56
2022/11/21 09:24:26;;;;;;;6.13;2.47;;;;;;;18.27;56.91;98176.19;5052918;28;20295;-57
2022/11/21 09:26:53;;;;;;;3.17;2.53;;;;;;;18.28;56.56;98175.31;5052486;28;20623;-57
2022/11/21 09:29:19;;;;;;;4.47;2.00;;;;;;;18.31;56.01;98189.94;5052940;28;20667;-57
2022/11/21 09:31:48;;;;;;;6.63;1.97;;;;;;;18.35;53.64;98178.53;5052951;28;20188;-57
2022/11/21 09:34:14;;;;;;;7.13;2.40;;;;;;;18.37;55.11;98171.53;5052885;28;20184;-56
2022/11/21 09:36:41;;;;;;;4.17;2.70;;;;;;;18.53;54.23;98168.34;5053038;28;20254;-56
2022/11/21 09:39:08;;;;;;;4.00;2.40;;;;;;;18.55;53.13;98163.94;5052834;28;20192;-56
2022/11/21 09:41:53;;;;;;;3.90;1.90;;;;;;;18.61;51.77;98178.47;5052720;28;20250;-56
2022/11/21 09:44:46;;;;;;;7.27;1.93;;;;;;;18.63;50.16;98174.91;5052832;28;20262;-56
2022/11/21 09:47:22;;;;;;;4.63;1.80;;;;;;;18.68;48.87;98174.72;5052852;28;20556;-56
2022/11/21 09:49:54;;;;;;;2.80;1.50;;;;;;;18.75;47.95;98173.59;5052888;28;20187;-56
2022/11/21 09:52:24;;;;;;;5.30;1.80;;;;;;;18.78;47.65;98176.09;5053067;28;20624;-56
2022/11/21 09:54:58;;;;;;;3.60;1.70;;;;;;;18.77;48.81;98167.44;5052608;28;20685;-56
2022/11/21 09:57:26;;;;;;;4.73;2.07;;;;;;;18.98;47.24;98176.16;5053027;28;20184;-56
2022/11/21 09:59:53;;;;;;;5.03;1.63;;;;;;;18.95;47.43;98162.44;5052513;28;20197;-56
2022/11/21 10:02:24;;;;;;;3.40;1.47;;;;;;;19.14;45.98;98166.03;5052002;28;21106;-56
2022/11/21 10:04:52;;;;;;;3.80;1.30;;;;;;;19.19;45.57;98164.94;5052403;28;20223;-56
2022/11/21 10:07:24;;;;;;;2.57;1.00;;;;;;;19.29;46.04;98165.41;5053029;28;20203;-56
2022/11/21 10:10:13;;;;;;;4.53;1.50;;;;;;;19.33;45.69;98154.81;5052862;28;20200;-56
2022/11/21 10:12:52;;;;;;;1.90;1.30;;;;;;;19.52;44.19;98147.13;5053008;28;20546;-55
2022/11/21 10:15:31;;;;;;;1.80;1.40;;;;;;;19.55;44.29;98157.41;5052710;28;20245;-55
2022/11/21 10:18:20;;;;;;;4.60;1.53;;;;;;;19.69;43.93;98143.81;5052179;28;20188;-55
2022/11/21 10:21:00;;;;;;;5.10;1.30;;;;;;;19.82;43.72;98152.81;5049266;28;20203;-55
2022/11/21 10:23:41;;;;;;;3.93;1.27;;;;;;;19.95;42.36;98161.78;5050355;28;20447;-56
2022/11/21 10:26:16;;;;;;;3.03;1.20;;;;;;;20.18;42.73;98164.28;5040334;28;20272;-56
2022/11/21 10:28:50;;;;;;;4.03;1.77;;;;;;;20.32;41.53;98169.78;5050527;28;20246;-56
2022/11/21 10:31:18;;;;;;;1.90;1.70;;;;;;;20.29;42.47;98187.31;5063705;28;20198;-56
2022/11/21 10:33:46;;;;;;;2.37;1.30;;;;;;;20.26;42.18;98193.50;5073337;28;20287;-55
2022/11/21 10:36:23;;;;;;;3.93;1.50;;;;;;;20.06;47.86;98179.59;5070165;28;20191;-56
2022/11/21 10:38:55;;;;;;;4.05;1.70;;;;;;;20.06;50.14;98205.66;5071032;28;20915;-56
2022/11/21 10:41:40;;;;;;;6.10;1.90;;;;;;;20.02;51.29;98204.97;5071816;28;20195;-56
2022/11/21 10:47:14;;;;;;;3.30;2.20;;;;;;;19.87;53.66;98200.38;5052357;28;20198;-56
2022/11/21 10:49:44;;;;;;;6.17;2.20;;;;;;;19.94;53.32;98201.84;5052223;28;20188;-56
2022/11/21 10:52:16;;;;;;;3.40;2.17;;;;;;;19.95;54.12;98203.50;5052225;28;20601;-56
2022/11/21 10:55:10;;;;;;;5.13;2.20;;;;;;;19.98;54.17;98200.78;5058171;28;20278;-56
2022/11/21 10:57:45;;;;;;;2.70;1.93;;;;;;;19.66;55.19;98199.53;5051233;28;20559;-56
2022/11/21 11:00:22;;;;;;;4.80;1.87;;;;;;;19.61;55.99;98195.41;5051500;28;20266;-56
2022/11/21 11:03:16;;;;;;;5.07;2.67;;;;;;;19.57;56.42;98192.06;5051506;28;20250;-56
2022/11/21 11:05:55;;;;;;;6.97;3.22;;;;;;;19.44;57.81;98198.69;5051670;28;20517;-56
2022/11/21 11:08:22;;;;;;;12.93;3.27;;;;;;;19.37;57.69;98186.78;5051425;28;20242;-56
2022/11/21 11:11:03;;;;;;;8.83;3.00;;;;;;;19.27;58.02;98191.50;5049871;28;20192;-56
2022/11/21 11:13:35;;;;;;;2.90;2.43;;;;;;;19.33;58.24;98199.09;5041654;28;20188;-57
2022/11/21 11:16:05;;;;;;;5.73;2.80;;;;;;;19.25;57.85;98208.97;5043378;28;20604;-57
2022/11/21 11:18:34;;;;;;;3.30;2.93;;;;;;;19.08;57.50;98211.38;5049531;28;20184;-56
2022/11/21 11:21:17;;;;;;;2.57;2.17;;;;;;;18.93;56.80;98204.13;5049934;28;20199;-57
2022/11/21 11:23:45;;;;;;;4.00;2.90;;;;;;;18.93;56.97;98211.06;5050142;28;20188;-57
2022/11/21 11:26:21;;;;;;;3.50;2.87;;;;;;;18.18;57.25;98093.34;5048351;28;20764;-56
2022/11/21 11:28:49;;;;;;;3.30;2.90;;;;;;;18.80;57.69;98208.09;5049278;28;20250;-57
2022/11/21 11:31:16;;;;;;;2.83;2.30;;;;;;;18.60;56.73;98194.97;5047530;28;20181;-56
2022/11/21 11:33:51;;;;;;;3.37;2.20;;;;;;;18.46;57.59;98210.22;5050581;28;20219;-56
2022/11/21 11:36:34;;;;;;;3.33;2.20;;;;;;;18.37;57.85;98218.34;5051429;28;20199;-57
2022/11/21 11:39:08;;;;;;;2.13;1.93;;;;;;;18.18;58.47;98218.97;5051456;28;20291;-56
2022/11/21 11:47:53;;;;;;;4.90;1.90;;;;;;;17.69;58.54;98203.31;5050619;28;20669;-56